KTCC

Tucumcari Municipal Airport

Tucumcari, New Mexico, USA
METAR KTCC 190653Z AUTO 25008KT 10SM CLR 02/M11 A3000 RMK AO2 SLP148 T00171106 401721100
Observed Flight Rules
Jan-19 @ 06:53 UTC (37 minutes ago) Visual Flight Rules
Wind Visibility Clouds
250° at 8 knots 10 miles
  • Clear skies
Temperatures Readings
Current 2°C / 36°F
Dewpoint -11°C / 12°F
Humidity 38%
Altimeter 30" Hg
Pressure 1014.8 hPa
Elevation 1235
METAR KTCC 190653Z AUTO 25008KT 10SM CLR 02/M11 A3000 RMK AO2 SLP148 T00171106 401721100
Observed Flight Rules
Jan-19 @ 06:53 UTC
(37 minutes ago)
VFR
Wind Visibility
250° at 8 knots 10 miles
Clouds
  • Clear skies
Temperature Dewpoint
2°C / 36°F -11°C / 12°F
Humidity Altimeter Pressure
38% 30" Hg 1014.8 hPa